Time;durP1;ratioP1;P1;durP2;ratioP2;P2;SDS_P1;SDS_P2;PMS_P1;PMS_P2;Temp;Humidity;BMP_temperature;BMP_pressure;BME280_temperature;BME280_humidity;BME280_pressure;Samples;Min_cycle;Max_cycle;Signal;HPM_P1;HPM_P2
2022/06/19 00:02:48;;;;;;;6.72;2.20;;;;;19.60;100352.00;;;;10227388;29;20221;-79
2022/06/19 00:07:51;;;;;;;4.38;2.17;;;;;19.50;100360.00;;;;10227873;28;20229;-78
2022/06/19 00:12:53;;;;;;;6.40;2.58;;;;;19.40;100360.00;;;;10226449;29;20371;-78
2022/06/19 00:17:55;;;;;;;8.65;2.60;;;;;19.30;100340.00;;;;10225890;29;20202;-78
2022/06/19 00:22:57;;;;;;;7.43;2.35;;;;;19.20;100358.00;;;;10210238;29;20280;-78
2022/06/19 00:27:59;;;;;;;9.30;2.92;;;;;19.10;100358.00;;;;10226413;29;20248;-78
2022/06/19 00:33:01;;;;;;;7.32;2.38;;;;;19.00;100372.00;;;;10208163;29;20577;-79
2022/06/19 00:38:03;;;;;;;7.65;2.47;;;;;18.90;100371.00;;;;10218859;29;20202;-78
2022/06/19 00:43:07;;;;;;;9.45;2.80;;;;;18.80;100343.00;;;;10201803;29;20262;-78
2022/06/19 00:48:15;;;;;;;8.38;2.45;;;;;18.60;100335.00;;;;10206682;29;20250;-79
2022/06/19 00:53:27;;;;;;;9.80;2.83;;;;;18.50;100393.00;;;;10200233;29;20214;-79
2022/06/19 00:58:36;;;;;;;13.82;3.33;;;;;18.30;100518.00;;;;10224830;29;20585;-78
2022/06/19 01:03:57;;;;;;;12.20;3.13;;;;;18.10;100469.00;;;;10223862;29;20193;-78
2022/06/19 01:08:59;;;;;;;11.85;2.88;;;;;17.80;100509.00;;;;10225040;28;20225;-78
2022/06/19 01:14:03;;;;;;;11.55;3.20;;;;;17.90;100485.00;;;;10224643;29;20213;-78
2022/06/19 01:19:09;;;;;;;10.10;2.70;;;;;17.70;100489.00;;;;10223325;29;20218;-77
2022/06/19 01:24:35;;;;;;;7.53;2.30;;;;;17.70;100545.00;;;;10224188;29;20197;-78
2022/06/19 01:29:38;;;;;;;8.47;2.47;;;;;17.70;100555.00;;;;10208532;29;20193;-80
2022/06/19 01:34:41;;;;;;;11.43;2.37;;;;;17.60;100549.00;;;;10223161;29;20213;-79
2022/06/19 01:39:47;;;;;;;7.70;2.50;;;;;17.60;100556.00;;;;10223956;29;20550;-77
2022/06/19 01:44:53;;;;;;;8.30;2.00;;;;;17.60;100572.00;;;;10224164;29;20193;-78
2022/06/19 01:49:56;;;;;;;12.43;2.07;;;;;17.50;100561.00;;;;10224154;29;20217;-77
2022/06/19 01:55:06;;;;;;;7.13;1.77;;;;;17.20;100581.00;;;;10199284;29;20228;-79
2022/06/19 02:00:25;;;;;;;8.57;1.40;;;;;17.20;100580.00;;;;10238122;28;20221;-79
2022/06/19 02:05:27;;;;;;;6.10;1.57;;;;;17.30;100568.00;;;;10221339;29;20251;-77
2022/06/19 02:10:30;;;;;;;5.17;1.70;;;;;17.20;100583.00;;;;10222148;29;20570;-77
2022/06/19 02:15:32;;;;;;;8.80;2.80;;;;;17.00;100587.00;;;;10221980;29;20550;-79
2022/06/19 02:20:34;;;;;;;5.30;1.47;;;;;17.00;100562.00;;;;10237814;29;20225;-78
2022/06/19 02:25:40;;;;;;;11.93;1.60;;;;;17.00;100564.00;;;;10237597;29;20185;-79
2022/06/19 02:30:42;;;;;;;9.77;1.73;;;;;17.00;100564.00;;;;10238609;29;20248;-79
2022/06/19 02:35:44;;;;;;;5.90;1.60;;;;;17.00;100556.00;;;;10222248;29;20302;-79
2022/06/19 02:40:58;;;;;;;7.27;1.40;;;;;17.00;100525.00;;;;10222919;29;20233;-79
2022/06/19 02:46:02;;;;;;;12.60;2.10;;;;;16.90;100498.00;;;;10222949;29;20199;-77
2022/06/19 02:51:05;;;;;;;4.30;1.63;;;;;16.80;100498.00;;;;10237720;29;20209;-78
2022/06/19 02:56:07;;;;;;;9.73;2.07;;;;;16.70;100485.00;;;;10214608;29;20217;-78
2022/06/19 03:01:09;;;;;;;7.40;1.40;;;;;16.50;100476.00;;;;10191838;29;20181;-78
2022/06/19 03:06:11;;;;;;;9.00;2.20;;;;;16.30;100469.00;;;;10205820;29;20230;-78
2022/06/19 03:11:13;;;;;;;5.63;1.40;;;;;16.20;100493.00;;;;10199528;29;20205;-78
2022/06/19 03:16:15;;;;;;;7.07;1.20;;;;;16.10;100551.00;;;;10206640;29;20190;-77
2022/06/19 03:21:18;;;;;;;3.70;1.30;;;;;16.00;100589.00;;;;10226183;29;20296;-79
2022/06/19 03:26:20;;;;;;;7.70;1.27;;;;;16.10;100530.00;;;;10205222;29;20221;-79
2022/06/19 03:31:24;;;;;;;8.00;1.27;;;;;16.00;100542.00;;;;10228554;29;20205;-77
2022/06/19 03:36:26;;;;;;;6.67;1.23;;;;;16.00;100525.00;;;;10227941;29;20194;-77
2022/06/19 03:41:28;;;;;;;9.77;1.33;;;;;16.00;100484.00;;;;10228486;29;20293;-78
2022/06/19 03:46:30;;;;;;;4.77;1.30;;;;;16.00;100449.00;;;;10228164;29;20194;-78
2022/06/19 03:51:32;;;;;;;4.33;1.17;;;;;16.00;100419.00;;;;10187460;29;20254;-78
2022/06/19 03:56:35;;;;;;;4.97;1.40;;;;;16.10;100401.00;;;;10242727;29;20213;-77
2022/06/19 04:01:43;;;;;;;8.50;1.40;;;;;16.20;100453.00;;;;10242661;29;20264;-77
2022/06/19 04:06:45;;;;;;;6.10;1.43;;;;;16.30;100454.00;;;;10234716;29;20219;-76
2022/06/19 04:11:47;;;;;;;8.93;1.63;;;;;16.40;100402.00;;;;10202906;29;20213;-77
2022/06/19 04:16:49;;;;;;;5.57;1.10;;;;;16.40;100371.00;;;;10208473;29;20189;-77
2022/06/19 04:21:51;;;;;;;4.47;1.03;;;;;16.60;100362.00;;;;10225955;28;20202;-78
2022/06/19 04:26:53;;;;;;;4.63;1.33;;;;;16.70;100356.00;;;;10226994;29;20225;-78
2022/06/19 04:31:56;;;;;;;5.17;1.67;;;;;16.70;100358.00;;;;10240250;29;20209;-77
2022/06/19 04:36:58;;;;;;;9.13;1.50;;;;;16.80;100335.00;;;;10224449;29;20201;-79
2022/06/19 04:42:00;;;;;;;3.33;1.10;;;;;16.80;100388.00;;;;10243311;29;20193;-78
2022/06/19 04:47:04;;;;;;;5.57;0.83;;;;;16.70;100385.00;;;;10227557;29;20215;-77
2022/06/19 04:52:06;;;;;;;2.77;1.20;;;;;16.50;100409.00;;;;10226023;29;20213;-77
2022/06/19 04:57:08;;;;;;;5.57;1.30;;;;;16.30;100432.00;;;;10242783;29;20757;-79
2022/06/19 05:02:14;;;;;;;5.50;1.00;;;;;15.90;100418.00;;;;10193934;29;20194;-78
2022/06/19 05:07:16;;;;;;;2.87;1.13;;;;;15.80;100399.00;;;;10192054;29;20322;-79
2022/06/19 05:12:19;;;;;;;5.40;1.33;;;;;15.90;100440.00;;;;10186412;29;20254;-80
2022/06/19 05:17:21;;;;;;;5.30;1.30;;;;;16.00;100432.00;;;;10183538;29;20229;-78
2022/06/19 05:22:24;;;;;;;2.10;1.10;;;;;16.20;100436.00;;;;10240664;29;20205;-80
2022/06/19 05:27:27;;;;;;;4.20;1.30;;;;;16.90;100494.00;;;;10209055;29;20197;-80
2022/06/19 05:32:29;;;;;;;5.80;1.50;;;;;17.70;100593.00;;;;10240336;28;20264;-80
2022/06/19 05:37:31;;;;;;;7.10;1.40;;;;;17.30;100669.00;;;;10207479;29;20201;-79
2022/06/19 05:42:33;;;;;;;4.20;1.07;;;;;17.20;100783.00;;;;10224380;29;20194;-80
2022/06/19 05:47:35;;;;;;;4.00;1.10;;;;;16.70;100851.00;;;;10236189;29;20258;-78
2022/06/19 05:52:37;;;;;;;5.43;1.10;;;;;15.60;100832.00;;;;10207956;29;20228;-78
2022/06/19 05:57:39;;;;;;;8.27;1.27;;;;;15.10;100835.00;;;;10224163;29;20189;-79
2022/06/19 06:02:41;;;;;;;7.03;1.13;;;;;14.80;100837.00;;;;10221615;28;20198;-78
2022/06/19 06:07:43;;;;;;;6.67;1.50;;;;;14.60;100830.00;;;;10210904;28;20229;-78
2022/06/19 06:12:45;;;;;;;8.20;1.60;;;;;14.30;100823.00;;;;10209029;29;20577;-80
2022/06/19 06:17:47;;;;;;;6.53;1.53;;;;;14.20;100775.00;;;;10193792;29;20209;-80
2022/06/19 06:22:49;;;;;;;4.40;1.17;;;;;14.30;100760.00;;;;10209813;29;20200;-80
2022/06/19 06:27:51;;;;;;;1.20;0.60;;;;;14.40;100726.00;;;;10208240;29;20201;-80
2022/06/19 06:32:53;;;;;;;6.30;1.33;;;;;14.50;100645.00;;;;10202877;29;20218;-78
2022/06/19 06:37:59;;;;;;;8.00;1.40;;;;;14.30;100624.00;;;;10191720;29;20207;-78
2022/06/19 06:43:01;;;;;;;6.53;1.20;;;;;13.90;100540.00;;;;10192099;28;20209;-82
2022/06/19 06:48:03;;;;;;;11.17;1.67;;;;;13.70;100525.00;;;;10223507;29;20273;-81
2022/06/19 06:53:07;;;;;;;6.73;1.40;;;;;13.60;100678.00;;;;10233241;28;20596;-80
2022/06/19 06:58:10;;;;;;;11.17;1.80;;;;;13.50;100722.00;;;;10224450;28;20193;-81
2022/06/19 07:03:12;;;;;;;9.80;1.63;;;;;13.50;100723.00;;;;10224657;28;20817;-81
2022/06/19 07:08:13;;;;;;;7.50;1.63;;;;;13.50;100737.00;;;;10224105;28;20232;-81
2022/06/19 07:13:16;;;;;;;6.77;1.20;;;;;13.60;100745.00;;;;10239660;29;20240;-80
2022/06/19 07:18:18;;;;;;;7.07;1.40;;;;;13.80;100734.00;;;;10217907;28;20235;-80
2022/06/19 07:23:20;;;;;;;10.27;1.53;;;;;13.90;100699.00;;;;10199047;29;20199;-79
2022/06/19 07:28:22;;;;;;;8.43;1.80;;;;;14.20;100714.00;;;;10182886;29;20289;-80
2022/06/19 07:33:24;;;;;;;11.67;2.17;;;;;14.30;100663.00;;;;10188559;29;20265;-79
2022/06/19 07:38:26;;;;;;;8.33;2.10;;;;;14.20;100553.00;;;;10204105;29;20225;-80
2022/06/19 07:43:29;;;;;;;7.30;1.80;;;;;14.10;100532.00;;;;10206371;28;20202;-80
2022/06/19 07:53:51;;;;;;;11.73;2.60;;;;;13.80;100485.00;;;;10218170;28;20270;-79
2022/06/19 07:58:53;;;;;;;8.20;2.20;;;;;13.90;100529.00;;;;10228459;29;20254;-78
2022/06/19 08:03:55;;;;;;;10.70;2.40;;;;;14.30;100562.00;;;;10204927;29;20202;-78
2022/06/19 08:08:57;;;;;;;14.43;2.77;;;;;15.00;100589.00;;;;10204142;29;20230;-79
2022/06/19 08:13:59;;;;;;;13.40;2.33;;;;;15.80;100606.00;;;;10217968;29;20304;-78
2022/06/19 08:19:02;;;;;;;9.83;2.53;;;;;16.40;100721.00;;;;10231962;28;20255;-78
2022/06/19 08:24:04;;;;;;;7.63;2.03;;;;;16.90;100765.00;;;;10252143;28;20541;-79
2022/06/19 08:29:06;;;;;;;5.87;1.90;;;;;17.50;100755.00;;;;10209856;29;20197;-79
2022/06/19 08:34:08;;;;;;;7.03;1.93;;;;;17.70;100732.00;;;;10227544;29;20214;-79
2022/06/19 08:39:14;;;;;;;6.20;1.80;;;;;17.60;100726.00;;;;10211523;29;20229;-78
2022/06/19 08:44:30;;;;;;;5.93;1.60;;;;;17.20;100667.00;;;;10224407;28;20690;-79
2022/06/19 08:49:47;;;;;;;10.60;1.93;;;;;17.50;100637.00;;;;10173527;29;20218;-79
2022/06/19 08:55:25;;;;;;;12.53;2.43;;;;;18.40;100617.00;;;;10233912;28;20719;-78
2022/06/19 09:00:34;;;;;;;6.07;2.10;;;;;18.60;100576.00;;;;10176383;29;20202;-77
2022/06/19 09:05:53;;;;;;;7.38;1.80;;;;;18.70;100615.00;;;;10240898;29;20197;-78
2022/06/19 09:11:20;;;;;;;8.30;2.08;;;;;18.70;100661.00;;;;10224907;28;20232;-79
2022/06/19 09:16:37;;;;;;;12.75;2.53;;;;;19.60;100687.00;;;;10209238;29;20206;-80
2022/06/19 09:22:11;;;;;;;8.85;2.40;;;;;19.20;100659.00;;;;10209278;29;20708;-80
2022/06/19 09:27:15;;;;;;;7.97;2.60;;;;;20.20;100651.00;;;;10239821;28;20198;-79
2022/06/19 09:32:31;;;;;;;7.32;2.15;;;;;20.30;100594.00;;;;10215608;28;20205;-81
2022/06/19 09:38:03;;;;;;;9.40;3.05;;;;;19.70;100549.00;;;;10252580;28;20708;-80
2022/06/19 09:43:11;;;;;;;7.35;2.10;;;;;19.20;100557.00;;;;10228742;29;20193;-79
2022/06/19 09:48:19;;;;;;;8.48;2.40;;;;;18.80;100624.00;;;;10208219;29;20194;-79
2022/06/19 09:53:34;;;;;;;9.43;2.20;;;;;19.10;100607.00;;;;10186864;28;20220;-80
2022/06/19 09:59:02;;;;;;;10.15;2.88;;;;;19.20;100566.00;;;;10228913;28;20208;-78
2022/06/19 10:04:15;;;;;;;5.75;2.47;;;;;19.80;100615.00;;;;10191749;28;20205;-79
2022/06/19 10:09:24;;;;;;;8.68;2.65;;;;;20.80;100626.00;;;;10248807;28;20271;-79
2022/06/19 10:14:42;;;;;;;8.77;2.53;;;;;21.50;100619.00;;;;10218550;28;20221;-80
2022/06/19 10:20:03;;;;;;;6.90;2.50;;;;;21.60;100597.00;;;;10231101;28;20208;-80
2022/06/19 10:25:27;;;;;;;7.88;2.22;;;;;22.60;100586.00;;;;10240239;28;20185;-80
2022/06/19 10:30:45;;;;;;;10.00;2.72;;;;;22.10;100634.00;;;;10199841;29;20202;-79
2022/06/19 10:36:00;;;;;;;7.18;2.35;;;;;22.30;100655.00;;;;10245546;28;20279;-79
2022/06/19 10:47:32;;;;;;;8.50;3.08;;;;;22.80;100636.00;;;;10027711;29;20596;-79
2022/06/19 10:52:54;;;;;;;9.82;2.42;;;;;23.70;100673.00;;;;10155524;28;20204;-80
2022/06/19 10:58:14;;;;;;;7.45;2.58;;;;;23.30;100681.00;;;;10230370;28;20201;-81
2022/06/19 11:08:46;;;;;;;7.07;2.90;;;;;22.80;100695.00;;;;10225916;28;20232;-81
2022/06/19 11:13:58;;;;;;;7.95;3.40;;;;;23.50;100673.00;;;;10195144;28;20797;-82
2022/06/19 11:19:00;;;;;;;5.47;2.88;;;;;23.50;100657.00;;;;10209853;28;20200;-81
2022/06/19 11:24:05;;;;;;;9.07;3.83;;;;;24.40;100652.00;;;;10224577;28;20189;-81
2022/06/19 11:29:13;;;;;;;5.18;3.30;;;;;25.30;100699.00;;;;10196282;28;20221;-80
2022/06/19 11:39:46;;;;;;;7.45;3.38;;;;;24.60;100778.00;;;;10231320;28;20193;-79
2022/06/19 11:44:57;;;;;;;5.88;2.92;;;;;22.70;100851.00;;;;10227001;28;20619;-80
2022/06/19 11:50:21;;;;;;;9.32;4.53;;;;;21.00;100844.00;;;;10218591;28;20499;-79
2022/06/19 11:55:29;;;;;;;7.22;3.60;;;;;20.30;100897.00;;;;10209608;28;20240;-79
2022/06/19 12:00:35;;;;;;;6.07;3.17;;;;;19.80;100888.00;;;;10216355;28;20189;-81
2022/06/19 12:05:43;;;;;;;7.05;2.95;;;;;20.60;100815.00;;;;10218869;28;20193;-79
2022/06/19 12:10:52;;;;;;;5.57;2.58;;;;;21.40;100843.00;;;;10209515;28;20227;-80
2022/06/19 12:16:17;;;;;;;7.03;2.50;;;;;22.80;100845.00;;;;10190050;28;20206;-81
2022/06/19 12:21:29;;;;;;;6.57;1.95;;;;;26.20;100817.00;;;;10194651;28;20186;-82
2022/06/19 12:26:36;;;;;;;6.47;2.60;;;;;27.90;100785.00;;;;10225888;28;20276;-81
2022/06/19 12:31:39;;;;;;;5.95;2.60;;;;;27.80;100787.00;;;;10211407;28;20197;-81
2022/06/19 12:36:41;;;;;;;3.40;2.05;;;;;28.10;100805.00;;;;10216174;28;20217;-81
2022/06/19 12:42:02;;;;;;;5.88;2.08;;;;;28.00;100830.00;;;;10199013;29;20293;-80
2022/06/19 12:47:10;;;;;;;9.13;2.90;;;;;28.20;100844.00;;;;10216605;28;20632;-82
2022/06/19 12:52:54;;;;;;;5.53;2.20;;;;;29.30;100870.00;;;;10222745;28;20296;-80
2022/06/19 12:58:15;;;;;;;5.47;2.25;;;;;27.30;100915.00;;;;10224831;28;20212;-81
2022/06/19 13:03:56;;;;;;;6.38;2.33;;;;;24.70;100916.00;;;;10210146;29;20228;-81
2022/06/19 13:09:13;;;;;;;6.65;2.55;;;;;24.10;100926.00;;;;10192097;28;20288;-83
2022/06/19 13:14:41;;;;;;;6.40;2.40;;;;;24.70;100902.00;;;;10227688;28;20201;-81
2022/06/19 13:20:00;;;;;;;4.70;2.10;;;;;25.60;100892.00;;;;10215121;28;20221;-79
2022/06/19 13:25:28;;;;;;;5.47;1.73;;;;;25.10;100891.00;;;;10204766;28;20194;-81
2022/06/19 13:30:47;;;;;;;8.35;3.88;;;;;23.70;100923.00;;;;10217927;28;20201;-78
2022/06/19 13:35:58;;;;;;;7.65;5.07;;;;;22.40;100904.00;;;;10221444;28;20219;-78
2022/06/19 13:41:13;;;;;;;8.93;4.10;;;;;21.30;100897.00;;;;10197464;29;20253;-77
2022/06/19 13:46:35;;;;;;;6.13;3.65;;;;;20.80;100885.00;;;;10223831;28;20188;-79
2022/06/19 13:52:03;;;;;;;8.32;3.90;;;;;21.10;100852.00;;;;10249447;28;20190;-79
2022/06/19 13:57:20;;;;;;;12.20;4.32;;;;;22.00;100855.00;;;;10216683;28;20313;-81
2022/06/19 14:02:41;;;;;;;12.13;5.55;;;;;22.80;100845.00;;;;10212060;28;20592;-79
2022/06/19 14:08:05;;;;;;;9.85;5.50;;;;;23.50;100844.00;;;;10207775;28;20290;-77
2022/06/19 14:13:27;;;;;;;10.55;6.85;;;;;24.40;100812.00;;;;10215977;28;20201;-78
2022/06/19 14:18:41;;;;;;;8.70;6.57;;;;;26.70;100811.00;;;;10220366;28;20193;-79
2022/06/19 14:24:03;;;;;;;9.65;6.20;;;;;26.20;100801.00;;;;10200502;28;20240;-78
2022/06/19 14:29:32;;;;;;;7.93;4.88;;;;;24.10;100775.00;;;;10231666;28;20194;-79
2022/06/19 14:34:49;;;;;;;11.43;4.32;;;;;24.60;100760.00;;;;10200872;28;20229;-79
2022/06/19 14:39:56;;;;;;;11.40;3.72;;;;;24.90;100754.00;;;;10219268;28;20609;-79
2022/06/19 14:45:03;;;;;;;8.13;2.67;;;;;23.70;100756.00;;;;10222180;28;20287;-81
2022/06/19 14:50:09;;;;;;;6.43;2.47;;;;;23.20;100719.00;;;;10223790;28;20197;-80
2022/06/19 14:55:47;;;;;;;6.95;2.70;;;;;22.90;100693.00;;;;10209976;28;20337;-81
2022/06/19 15:00:55;;;;;;;7.05;2.60;;;;;23.70;100702.00;;;;10221633;28;20233;-80
2022/06/19 15:06:16;;;;;;;5.30;2.35;;;;;23.70;100698.00;;;;10195384;28;20202;-79
2022/06/19 15:11:32;;;;;;;6.43;2.78;;;;;22.00;100715.00;;;;10210239;28;20261;-81
2022/06/19 15:16:58;;;;;;;7.07;2.90;;;;;21.70;100672.00;;;;10235143;28;20202;-82
2022/06/19 15:22:06;;;;;;;7.40;2.92;;;;;21.40;100678.00;;;;10198972;28;20999;-82
2022/06/19 15:27:14;;;;;;;6.78;2.58;;;;;21.40;100674.00;;;;10208697;29;20189;-82
2022/06/19 15:32:55;;;;;;;8.38;3.53;;;;;20.90;100657.00;;;;10241615;28;20280;-80
2022/06/19 15:38:07;;;;;;;8.55;3.25;;;;;21.10;100640.00;;;;10223521;28;20213;-79
2022/06/19 15:43:15;;;;;;;8.23;3.50;;;;;22.40;100698.00;;;;10249124;28;20197;-79
2022/06/19 15:48:30;;;;;;;6.43;3.83;;;;;22.70;100725.00;;;;10240662;28;20189;-79
2022/06/19 15:53:42;;;;;;;7.78;3.97;;;;;22.30;100751.00;;;;10207147;28;20680;-78
2022/06/19 15:58:50;;;;;;;7.70;4.15;;;;;22.60;100776.00;;;;10233477;28;20201;-78
2022/06/19 16:04:32;;;;;;;9.75;4.63;;;;;22.60;100782.00;;;;10233493;28;20189;-80
2022/06/19 16:09:46;;;;;;;7.85;4.13;;;;;22.10;100787.00;;;;10182091;28;20708;-80
2022/06/19 16:14:48;;;;;;;9.52;4.00;;;;;21.70;100791.00;;;;10192800;28;20637;-81
2022/06/19 16:20:15;;;;;;;10.57;4.10;;;;;21.00;100798.00;;;;10234324;28;20204;-80
2022/06/19 16:25:30;;;;;;;7.40;3.45;;;;;20.50;100807.00;;;;10222333;28;20198;-82
2022/06/19 16:30:38;;;;;;;6.55;3.03;;;;;20.40;100806.00;;;;10221054;29;20580;-79
2022/06/19 16:46:25;;;;;;;3.88;2.38;;;;;19.60;100828.00;;;;10241914;28;20211;-79
2022/06/19 16:51:28;;;;;;;7.53;3.30;;;;;19.40;100816.00;;;;10231268;28;20288;-79
2022/06/19 16:56:33;;;;;;;5.97;3.63;;;;;19.10;100828.00;;;;10221744;28;20240;-79
2022/06/19 17:01:40;;;;;;;7.55;4.28;;;;;18.80;100785.00;;;;10232763;28;20224;-81
2022/06/19 17:06:46;;;;;;;5.15;3.67;;;;;18.70;100793.00;;;;10264414;28;20552;-79
2022/06/19 17:11:55;;;;;;;6.70;4.35;;;;;18.60;100773.00;;;;10239249;28;20231;-77
2022/06/19 17:17:08;;;;;;;8.60;5.28;;;;;18.40;100732.00;;;;10210760;28;20214;-78
2022/06/19 17:22:10;;;;;;;10.20;7.18;;;;;18.80;100691.00;;;;10244752;28;20192;-79
2022/06/19 17:27:22;;;;;;;8.60;7.35;;;;;19.50;100735.00;;;;10240529;28;20211;-77
2022/06/19 17:32:54;;;;;;;10.32;8.10;;;;;18.70;100735.00;;;;10212780;28;20245;-77
2022/06/19 17:37:58;;;;;;;9.07;6.25;;;;;18.50;100781.00;;;;10240843;28;20228;-77
2022/06/19 17:43:03;;;;;;;6.95;5.40;;;;;18.40;100757.00;;;;10226838;28;20202;-78
2022/06/19 17:48:07;;;;;;;9.43;5.28;;;;;18.50;100763.00;;;;10177997;28;20293;-79
2022/06/19 17:53:37;;;;;;;6.80;3.80;;;;;18.70;100750.00;;;;10232559;28;20543;-78
2022/06/19 17:58:50;;;;;;;5.95;3.17;;;;;18.60;100742.00;;;;10208373;28;20754;-77
2022/06/19 18:03:57;;;;;;;6.50;3.15;;;;;18.50;100744.00;;;;10223278;28;20192;-78
2022/06/19 18:09:00;;;;;;;3.83;3.10;;;;;18.90;100725.00;;;;10233316;28;20229;-78
2022/06/19 18:14:08;;;;;;;7.28;2.83;;;;;18.90;100714.00;;;;10223874;28;20296;-78
2022/06/19 18:19:10;;;;;;;3.10;2.08;;;;;18.70;100703.00;;;;10206116;28;20185;-78
2022/06/19 18:24:18;;;;;;;4.57;2.05;;;;;18.60;100695.00;;;;10211778;28;20221;-79
2022/06/19 18:29:36;;;;;;;5.00;2.17;;;;;18.60;100699.00;;;;10207619;28;20197;-78
2022/06/19 18:34:40;;;;;;;3.55;1.73;;;;;18.40;100724.00;;;;10211891;28;20212;-78
2022/06/19 18:40:04;;;;;;;3.58;2.00;;;;;18.40;100738.00;;;;10219334;28;20181;-79
2022/06/19 18:45:07;;;;;;;3.08;1.55;;;;;18.40;100741.00;;;;10217241;28;20193;-78
2022/06/19 18:50:13;;;;;;;3.13;1.77;;;;;18.40;100749.00;;;;10250342;28;20197;-78
2022/06/19 18:55:23;;;;;;;4.75;1.50;;;;;18.40;100765.00;;;;10210653;29;20245;-79
2022/06/19 19:00:27;;;;;;;4.22;1.40;;;;;18.40;100757.00;;;;10233501;28;20237;-79
2022/06/19 19:05:29;;;;;;;2.80;1.33;;;;;18.40;100758.00;;;;10236100;28;20568;-79
2022/06/19 19:10:35;;;;;;;4.18;1.50;;;;;18.10;100773.00;;;;10228484;28;20225;-79
2022/06/19 19:15:41;;;;;;;3.22;1.35;;;;;17.90;100778.00;;;;10219963;28;20230;-78
2022/06/19 19:20:45;;;;;;;4.03;1.38;;;;;17.80;100810.00;;;;10202869;28;20256;-79
2022/06/19 19:25:53;;;;;;;5.57;1.92;;;;;17.60;100786.00;;;;10217871;28;20241;-79
2022/06/19 19:30:55;;;;;;;3.50;1.25;;;;;17.50;100773.00;;;;10201029;29;20206;-79
2022/06/19 19:35:58;;;;;;;12.63;1.83;;;;;17.30;100785.00;;;;10234833;28;20312;-79
2022/06/19 19:41:00;;;;;;;7.60;1.45;;;;;17.10;100796.00;;;;10202657;29;20201;-79
2022/06/19 19:46:30;;;;;;;7.93;1.77;;;;;16.90;100779.00;;;;10203000;28;20296;-79
2022/06/19 19:51:33;;;;;;;6.13;1.57;;;;;16.60;100781.00;;;;10215549;28;20257;-78
2022/06/19 19:56:35;;;;;;;7.40;1.87;;;;;16.50;100791.00;;;;10238503;28;20260;-80
2022/06/19 20:01:37;;;;;;;6.50;1.77;;;;;16.30;100800.00;;;;10201489;29;20211;-79
2022/06/19 20:12:00;;;;;;;7.50;2.50;;;;;16.10;100820.00;;;;10225751;28;20205;-80
2022/06/19 20:17:03;;;;;;;5.20;1.87;;;;;16.10;100837.00;;;;10241108;28;20241;-80
2022/06/19 20:22:31;;;;;;;8.47;1.87;;;;;16.00;100853.00;;;;10231319;29;20557;-80
2022/06/19 20:27:40;;;;;;;5.43;2.23;;;;;15.90;100861.00;;;;10225018;29;20204;-80
2022/06/19 20:32:45;;;;;;;5.30;1.83;;;;;15.80;100858.00;;;;10210633;28;20202;-80
2022/06/19 20:37:50;;;;;;;6.13;1.90;;;;;15.70;100866.00;;;;10226119;28;20218;-79
2022/06/19 20:42:53;;;;;;;5.10;1.70;;;;;15.60;100864.00;;;;10215537;28;20572;-78
2022/06/19 20:47:57;;;;;;;6.77;1.67;;;;;15.60;100852.00;;;;10227882;28;20201;-78
2022/06/19 20:53:04;;;;;;;6.67;1.93;;;;;15.50;100861.00;;;;10240222;28;20276;-79
2022/06/19 20:58:07;;;;;;;10.43;1.90;;;;;15.40;100853.00;;;;10224625;28;20221;-79
2022/06/19 21:03:10;;;;;;;6.07;1.93;;;;;15.40;100848.00;;;;10215551;28;20226;-79
2022/06/19 21:08:19;;;;;;;7.37;2.00;;;;;15.30;100861.00;;;;10257916;28;20557;-79
2022/06/19 21:13:31;;;;;;;10.57;2.57;;;;;15.20;100866.00;;;;10206743;28;20201;-78
2022/06/19 21:18:34;;;;;;;10.87;2.60;;;;;15.10;100855.00;;;;10198837;29;20209;-79
2022/06/19 21:23:39;;;;;;;12.77;2.77;;;;;15.00;100834.00;;;;10224228;28;20221;-79
2022/06/19 21:28:42;;;;;;;8.40;1.67;;;;;15.00;100844.00;;;;10223910;28;20194;-80
2022/06/19 21:33:44;;;;;;;9.27;2.30;;;;;14.90;100846.00;;;;10213977;28;20213;-78
2022/06/19 21:38:48;;;;;;;8.77;2.67;;;;;14.90;100844.00;;;;10184501;28;20202;-79
2022/06/19 21:43:50;;;;;;;6.97;2.63;;;;;14.80;100824.00;;;;10223076;28;20581;-80
2022/06/19 21:48:52;;;;;;;12.40;1.93;;;;;14.80;100811.00;;;;10217555;29;20193;-80
2022/06/19 21:53:56;;;;;;;5.00;1.93;;;;;14.70;100811.00;;;;10194831;29;20213;-79
2022/06/19 21:58:59;;;;;;;7.73;2.03;;;;;14.70;100825.00;;;;10170365;29;20250;-79
2022/06/19 22:04:01;;;;;;;9.60;2.20;;;;;14.60;100830.00;;;;10202662;29;20228;-80
2022/06/19 22:09:05;;;;;;;8.80;2.27;;;;;14.60;100833.00;;;;10224649;28;20288;-80
2022/06/19 22:14:15;;;;;;;10.23;2.30;;;;;14.60;100830.00;;;;10224490;29;20198;-78
2022/06/19 22:19:17;;;;;;;6.90;1.90;;;;;14.50;100849.00;;;;10202059;29;20286;-79
2022/06/19 22:24:26;;;;;;;11.33;1.73;;;;;14.50;100857.00;;;;10185598;29;20190;-78
2022/06/19 22:29:28;;;;;;;7.03;2.07;;;;;14.40;100854.00;;;;10210922;29;20205;-78
2022/06/19 22:34:30;;;;;;;7.77;1.93;;;;;14.40;100863.00;;;;10208991;29;20202;-80
2022/06/19 22:39:36;;;;;;;8.87;1.90;;;;;14.30;100883.00;;;;10208335;29;20198;-78
2022/06/19 22:44:39;;;;;;;9.43;2.30;;;;;14.40;100887.00;;;;10215801;29;20617;-80
2022/06/19 22:49:41;;;;;;;8.60;2.50;;;;;14.40;100857.00;;;;10197398;29;20294;-80
2022/06/19 22:54:43;;;;;;;10.63;2.47;;;;;14.40;100877.00;;;;10197055;29;20216;-80
2022/06/19 23:05:27;;;;;;;6.50;2.20;;;;;14.50;100848.00;;;;10204440;29;20218;-80
2022/06/19 23:10:30;;;;;;;6.43;2.07;;;;;14.50;100844.00;;;;10199073;29;20304;-80
2022/06/19 23:15:32;;;;;;;12.97;2.57;;;;;14.50;100845.00;;;;10168319;29;20261;-79
2022/06/19 23:20:43;;;;;;;10.50;2.10;;;;;14.50;100866.00;;;;10233391;29;20684;-79
2022/06/19 23:25:58;;;;;;;9.07;2.23;;;;;14.50;100854.00;;;;10222844;29;20225;-80
2022/06/19 23:30:59;;;;;;;10.77;2.13;;;;;14.50;100838.00;;;;10195783;29;20662;-78
2022/06/19 23:36:02;;;;;;;6.67;2.03;;;;;14.50;100837.00;;;;10230197;29;20218;-80
2022/06/19 23:41:06;;;;;;;7.87;2.70;;;;;14.50;100850.00;;;;10214694;29;20193;-80
2022/06/19 23:46:14;;;;;;;7.33;1.97;;;;;14.60;100885.00;;;;10230656;29;20205;-80
2022/06/19 23:51:18;;;;;;;6.97;1.83;;;;;14.60;100955.00;;;;10231937;29;20645;-80
2022/06/19 23:56:22;;;;;;;8.07;2.00;;;;;14.60;101048.00;;;;10231195;29;20681;-80
